Gabriella — OJHP — position and weather

sailwx.info

Track history (hours):
 
Tides and Currents Weather Stations Pressure Air Temp Water Temp Dewpoint Dewpoint Depression Visibility Wind Speed Wind Dir Waves Ship Positions

Gabriella

Last reported at 2014-Dec-22 22:33 UTC. Time now 2014-Dec-22 22:46 UTC.
Position N 59°33' E 021°28'.

Length 172 m; draft 6.5 m.

Type: Passenger vessel. MMSI: 230361000.

Date/timePositionNaut miles runAvg speedWind from/ knotsBaromVisibWave heightAir tempDewpointWater temp
2014-Dec-22 22:33N 59°33' E 021°28'1717.1
2014-Dec-22 21:33N 59°32' E 022°01'3517.4
2014-Dec-22 19:31N 59°40' E 023°10'1717.3
2014-Dec-22 18:33N 59°44' E 023°42'1917.3
2014-Dec-22 17:29N 59°50' E 024°17'6 0.6
2014-Dec-22 06:24N 59°52' E 024°29'1517.2
2014-Dec-22 05:33N 59°47' E 024°02'1818.2
2014-Dec-22 04:33N 59°42' E 023°27'4218.4
2014-Dec-22 02:17N 59°33' E 022°06'1318.3
2014-Dec-22 01:33N 59°32' E 021°40'9911.8
2014-Dec-21 17:11N 59°28' E 018°26'7 9.6
2014-Dec-21 16:29N 59°22' E 018°27'1010.5
2014-Dec-21 15:33N 59°19' E 018°08'1 1.1
2014-Dec-21 14:31N 59°19' E 018°06'0 0.0
2014-Dec-21 13:31N 59°19' E 018°06'0 0.0
2014-Dec-21 12:31N 59°19' E 018°06'0 0.0
2014-Dec-21 11:31N 59°19' E 018°06'0 0.0
2014-Dec-21 10:31N 59°19' E 018°06'0 0.0
2014-Dec-21 09:31N 59°19' E 018°06'2 2.1
2014-Dec-21 08:33N 59°19' E 018°10'91 9.8
2014-Dec-20 23:15N 59°37' E 021°05'1217.3
2014-Dec-20 22:34N 59°34' E 021°28'5417.0
2014-Dec-20 19:22N 59°41' E 023°15'1417.3
2014-Dec-20 18:33N 59°44' E 023°42'2017.3
2014-Dec-20 17:25N 59°50' E 024°19'5 0.4
2014-Dec-20 06:29N 59°51' E 024°28'7318.5
2014-Dec-20 02:31N 59°34' E 022°07'1717.3
2014-Dec-20 01:33N 59°32' E 021°34'9611.3
2014-Dec-19 17:06N 59°27' E 018°26'5 9.7
2014-Dec-19 16:32N 59°22' E 018°27'1010.3
2014-Dec-19 15:33N 59°19' E 018°08'1 0.9
2014-Dec-19 14:32N 59°19' E 018°06'0 0.0
2014-Dec-19 13:32N 59°19' E 018°06'0 0.0
2014-Dec-19 12:32N 59°19' E 018°06'0 0.0
2014-Dec-19 11:32N 59°19' E 018°06'0 0.0
2014-Dec-19 10:32N 59°19' E 018°06'0 0.0
2014-Dec-19 09:32N 59°19' E 018°06'2 2.1
2014-Dec-19 08:33N 59°19' E 018°10'92 9.8
2014-Dec-18 23:11N 59°37' E 021°07'1117.2
2014-Dec-18 22:33N 59°34' E 021°28'7517.0
2014-Dec-18 18:11N 59°46' E 023°54'1117.3
2014-Dec-18 17:32N 59°49' E 024°15'8 0.7
2014-Dec-18 06:29N 59°52' E 024°30'7418.0
2014-Dec-18 02:23N 59°33' E 022°08'1518.0
2014-Dec-18 01:33N 59°32' E 021°39'9811.7
2014-Dec-17 17:13N 59°27' E 018°26'7 6.2
2014-Dec-17 16:10N 59°22' E 018°18'711.2
2014-Dec-17 15:33N 59°19' E 018°06'0 0.1
2014-Dec-17 14:32N 59°19' E 018°06'0 0.0
2014-Dec-17 13:32N 59°19' E 018°06'0 0.0
2014-Dec-17 12:32N 59°19' E 018°06'0 0.0
2014-Dec-17 11:32N 59°19' E 018°06'0 0.0
2014-Dec-17 10:32N 59°19' E 018°06'0 0.0
2014-Dec-17 09:32N 59°19' E 018°06'2 1.6
2014-Dec-17 08:33N 59°19' E 018°09'90 9.8
2014-Dec-16 23:25N 59°38' E 021°02'1517.6
2014-Dec-16 22:33N 59°34' E 021°31'5617.3
2014-Dec-16 19:20N 59°40' E 023°20'1417.3
2014-Dec-16 18:32N 59°44' E 023°46'1717.7
2014-Dec-16 17:33N 59°49' E 024°19'6 0.5
2014-Dec-16 06:30N 59°52' E 024°29'1718.0
2014-Dec-16 05:34N 59°46' E 023°57'1818.1
2014-Dec-16 04:33N 59°42' E 023°22'3918.1
2014-Dec-16 02:25N 59°33' E 022°08'1517.9
2014-Dec-16 01:33N 59°33' E 021°37'9711.6
2014-Dec-15 17:12N 59°28' E 018°26'7 9.7
2014-Dec-15 16:32N 59°22' E 018°27'1010.2
2014-Dec-15 15:33N 59°19' E 018°08'1 1.1
2014-Dec-15 14:31N 59°19' E 018°06'0 0.0
2014-Dec-15 13:31N 59°19' E 018°06'0 0.0
2014-Dec-15 12:25N 59°19' E 018°06'0 0.0
2014-Dec-15 11:31N 59°19' E 018°06'0 0.0
2014-Dec-15 10:28N 59°19' E 018°06'0 0.0
2014-Dec-15 09:31N 59°19' E 018°06'2 1.7
2014-Dec-15 08:34N 59°19' E 018°09'92 9.8
2014-Dec-14 23:08N 59°37' E 021°07'1016.7
2014-Dec-14 22:33N 59°34' E 021°25'5516.7
2014-Dec-14 19:14N 59°39' E 023°14'1217.9
2014-Dec-14 18:33N 59°43' E 023°37'2218.2
2014-Dec-14 17:20N 59°49' E 024°19'6 0.5
2014-Dec-14 06:31N 59°52' E 024°29'1718.1
2014-Dec-14 05:34N 59°46' E 023°57'1818.1
2014-Dec-14 04:34N 59°42' E 023°22'3918.1
2014-Dec-14 02:26N 59°33' E 022°08'1617.9
2014-Dec-14 01:34N 59°33' E 021°37'1818.1
2014-Dec-14 00:33N 59°36' E 021°02'7910.8
2014-Dec-13 17:10N 59°28' E 018°26'6 9.7
2014-Dec-13 16:33N 59°22' E 018°27'1010.0
2014-Dec-13 15:33N 59°19' E 018°08'1 1.1
2014-Dec-13 14:32N 59°19' E 018°06'0 0.0
2014-Dec-13 13:32N 59°19' E 018°06'0 0.0
2014-Dec-13 12:32N 59°19' E 018°06'0 0.0
2014-Dec-13 11:32N 59°19' E 018°06'0 0.0
2014-Dec-13 10:32N 59°19' E 018°06'0 0.0
2014-Dec-13 09:32N 59°19' E 018°06'2 2.1
2014-Dec-13 08:33N 59°19' E 018°10'98 9.8
2014-Dec-12 22:33N 59°35' E 021°20'  
Track history (hours):
 
Tides and Currents Weather Stations Pressure Air Temp Water Temp Dewpoint Dewpoint Depression Visibility Wind Speed Wind Dir Waves Ship Positions

Gabriella

Last reported at 2014-Dec-22 22:33 UTC. Time now 2014-Dec-22 22:46 UTC.
Position N 59°33' E 021°28'.

Length 172 m; draft 6.5 m.

Type: Passenger vessel. MMSI: 230361000.

Date/timePositionNaut miles runAvg speedWind from/ knotsBaromVisibWave heightAir tempDewpointWater temp
2014-Dec-22 22:33N 59°33' E 021°28'1717.1
2014-Dec-22 21:33N 59°32' E 022°01'3517.4
2014-Dec-22 19:31N 59°40' E 023°10'1717.3
2014-Dec-22 18:33N 59°44' E 023°42'1917.3
2014-Dec-22 17:29N 59°50' E 024°17'6 0.6
2014-Dec-22 06:24N 59°52' E 024°29'1517.2
2014-Dec-22 05:33N 59°47' E 024°02'1818.2
2014-Dec-22 04:33N 59°42' E 023°27'4218.4
2014-Dec-22 02:17N 59°33' E 022°06'1318.3
2014-Dec-22 01:33N 59°32' E 021°40'9911.8
2014-Dec-21 17:11N 59°28' E 018°26'7 9.6
2014-Dec-21 16:29N 59°22' E 018°27'1010.5
2014-Dec-21 15:33N 59°19' E 018°08'1 1.1
2014-Dec-21 14:31N 59°19' E 018°06'0 0.0
2014-Dec-21 13:31N 59°19' E 018°06'0 0.0
2014-Dec-21 12:31N 59°19' E 018°06'0 0.0
2014-Dec-21 11:31N 59°19' E 018°06'0 0.0
2014-Dec-21 10:31N 59°19' E 018°06'0 0.0
2014-Dec-21 09:31N 59°19' E 018°06'2 2.1
2014-Dec-21 08:33N 59°19' E 018°10'91 9.8
2014-Dec-20 23:15N 59°37' E 021°05'1217.3
2014-Dec-20 22:34N 59°34' E 021°28'5417.0
2014-Dec-20 19:22N 59°41' E 023°15'1417.3
2014-Dec-20 18:33N 59°44' E 023°42'2017.3
2014-Dec-20 17:25N 59°50' E 024°19'5 0.4
2014-Dec-20 06:29N 59°51' E 024°28'7318.5
2014-Dec-20 02:31N 59°34' E 022°07'1717.3
2014-Dec-20 01:33N 59°32' E 021°34'9611.3
2014-Dec-19 17:06N 59°27' E 018°26'5 9.7
2014-Dec-19 16:32N 59°22' E 018°27'1010.3
2014-Dec-19 15:33N 59°19' E 018°08'1 0.9
2014-Dec-19 14:32N 59°19' E 018°06'0 0.0
2014-Dec-19 13:32N 59°19' E 018°06'0 0.0
2014-Dec-19 12:32N 59°19' E 018°06'0 0.0
2014-Dec-19 11:32N 59°19' E 018°06'0 0.0
2014-Dec-19 10:32N 59°19' E 018°06'0 0.0
2014-Dec-19 09:32N 59°19' E 018°06'2 2.1
2014-Dec-19 08:33N 59°19' E 018°10'92 9.8
2014-Dec-18 23:11N 59°37' E 021°07'1117.2
2014-Dec-18 22:33N 59°34' E 021°28'7517.0
2014-Dec-18 18:11N 59°46' E 023°54'1117.3
2014-Dec-18 17:32N 59°49' E 024°15'8 0.7
2014-Dec-18 06:29N 59°52' E 024°30'7418.0
2014-Dec-18 02:23N 59°33' E 022°08'1518.0
2014-Dec-18 01:33N 59°32' E 021°39'9811.7
2014-Dec-17 17:13N 59°27' E 018°26'7 6.2
2014-Dec-17 16:10N 59°22' E 018°18'711.2
2014-Dec-17 15:33N 59°19' E 018°06'0 0.1
2014-Dec-17 14:32N 59°19' E 018°06'0 0.0
2014-Dec-17 13:32N 59°19' E 018°06'0 0.0
2014-Dec-17 12:32N 59°19' E 018°06'0 0.0
2014-Dec-17 11:32N 59°19' E 018°06'0 0.0
2014-Dec-17 10:32N 59°19' E 018°06'0 0.0
2014-Dec-17 09:32N 59°19' E 018°06'2 1.6
2014-Dec-17 08:33N 59°19' E 018°09'90 9.8
2014-Dec-16 23:25N 59°38' E 021°02'1517.6
2014-Dec-16 22:33N 59°34' E 021°31'5617.3
2014-Dec-16 19:20N 59°40' E 023°20'1417.3
2014-Dec-16 18:32N 59°44' E 023°46'1717.7
2014-Dec-16 17:33N 59°49' E 024°19'6 0.5
2014-Dec-16 06:30N 59°52' E 024°29'1718.0
2014-Dec-16 05:34N 59°46' E 023°57'1818.1
2014-Dec-16 04:33N 59°42' E 023°22'3918.1
2014-Dec-16 02:25N 59°33' E 022°08'1517.9
2014-Dec-16 01:33N 59°33' E 021°37'9711.6
2014-Dec-15 17:12N 59°28' E 018°26'7 9.7
2014-Dec-15 16:32N 59°22' E 018°27'1010.2
2014-Dec-15 15:33N 59°19' E 018°08'1 1.1
2014-Dec-15 14:31N 59°19' E 018°06'0 0.0
2014-Dec-15 13:31N 59°19' E 018°06'0 0.0
2014-Dec-15 12:25N 59°19' E 018°06'0 0.0
2014-Dec-15 11:31N 59°19' E 018°06'0 0.0
2014-Dec-15 10:28N 59°19' E 018°06'0 0.0
2014-Dec-15 09:31N 59°19' E 018°06'2 1.7
2014-Dec-15 08:34N 59°19' E 018°09'92 9.8
2014-Dec-14 23:08N 59°37' E 021°07'1016.7
2014-Dec-14 22:33N 59°34' E 021°25'5516.7
2014-Dec-14 19:14N 59°39' E 023°14'1217.9
2014-Dec-14 18:33N 59°43' E 023°37'2218.2
2014-Dec-14 17:20N 59°49' E 024°19'6 0.5
2014-Dec-14 06:31N 59°52' E 024°29'1718.1
2014-Dec-14 05:34N 59°46' E 023°57'1818.1
2014-Dec-14 04:34N 59°42' E 023°22'3918.1
2014-Dec-14 02:26N 59°33' E 022°08'1617.9
2014-Dec-14 01:34N 59°33' E 021°37'1818.1
2014-Dec-14 00:33N 59°36' E 021°02'7910.8
2014-Dec-13 17:10N 59°28' E 018°26'6 9.7
2014-Dec-13 16:33N 59°22' E 018°27'1010.0
2014-Dec-13 15:33N 59°19' E 018°08'1 1.1
2014-Dec-13 14:32N 59°19' E 018°06'0 0.0
2014-Dec-13 13:32N 59°19' E 018°06'0 0.0
2014-Dec-13 12:32N 59°19' E 018°06'0 0.0
2014-Dec-13 11:32N 59°19' E 018°06'0 0.0
2014-Dec-13 10:32N 59°19' E 018°06'0 0.0
2014-Dec-13 09:32N 59°19' E 018°06'2 2.1
2014-Dec-13 08:33N 59°19' E 018°10'98 9.8
2014-Dec-12 22:33N 59°35' E 021°20'  

Dump ship's entire track history